Teeds Grove, Iowa
Current Conditions -  °F | °C
As of 6:15 AM on Sunday 23 Nov 2014 (Local Time) from KSFY Reporting Station
Overcast Overcast  
Wind Chill: 50°   Ceiling: 1700
Heat Index: 50°   Visibility: 7mi
Dew Point: 47°   Wind: 7mph
Humidity: 90%   Direction: 160°SSE
Pressure: 29.67"   Gusts: NA
Location:  42.01°N, 90.25°W
Report Text: KSFY 231215Z AUTO 16006KT 7SM OVC017 10/09 A2967 RMK AO2 T01000085
Loading
Personal Weather Stations






























Interactive Weather Map New forecast layout! Learn more

10-Day Weather Forecast

Advertisements
Track Severe Weather on mobile